Time;durP1;ratioP1;P1;durP2;ratioP2;P2;SDS_P1;SDS_P2;PMS_P1;PMS_P2;Temp;Humidity;BMP_temperature;BMP_pressure;BME280_temperature;BME280_humidity;BME280_pressure;Samples;Min_cycle;Max_cycle;Signal;HPM_P1;HPM_P2
2021/08/13 00:02:11;;;;;;;9.53;7.37;;;14.60;99.90;;;;;;5209849;28;20237;-64
2021/08/13 00:04:47;;;;;;;12.33;7.67;;;14.50;99.90;;;;;;5193921;28;20221;-65
2021/08/13 00:07:19;;;;;;;9.93;7.07;;;14.50;99.90;;;;;;5211220;28;20229;-61
2021/08/13 00:09:51;;;;;;;9.73;7.37;;;14.50;99.90;;;;;;5209768;28;20213;-61
2021/08/13 00:12:23;;;;;;;12.47;7.97;;;14.50;99.90;;;;;;5210462;28;20551;-62
2021/08/13 00:14:57;;;;;;;11.37;7.60;;;14.40;99.90;;;;;;5210388;28;20568;-63
2021/08/13 00:17:29;;;;;;;11.00;7.83;;;14.50;99.90;;;;;;5209713;28;20205;-61
2021/08/13 00:20:01;;;;;;;9.33;7.90;;;14.40;99.90;;;;;;5210585;28;20206;-63
2021/08/13 00:22:33;;;;;;;10.53;7.90;;;14.40;99.90;;;;;;5210909;28;20206;-61
2021/08/13 00:25:05;;;;;;;12.73;8.47;;;14.40;99.90;;;;;;5209707;28;20218;-61
2021/08/13 00:27:38;;;;;;;12.63;9.67;;;14.40;99.90;;;;;;5209742;28;20229;-61
2021/08/13 00:30:10;;;;;;;11.70;8.93;;;14.40;99.90;;;;;;5210963;28;20214;-62
2021/08/13 00:32:42;;;;;;;14.20;9.40;;;14.40;99.90;;;;;;5210928;28;20226;-61
2021/08/13 00:35:17;;;;;;;12.23;8.83;;;14.30;99.90;;;;;;5210390;28;20209;-60
2021/08/13 00:37:49;;;;;;;15.13;9.00;;;14.30;99.90;;;;;;5210497;28;20213;-61
2021/08/13 00:40:24;;;;;;;15.10;10.10;;;14.30;99.90;;;;;;5210423;28;20202;-62
2021/08/13 00:42:56;;;;;;;12.70;8.90;;;14.20;99.90;;;;;;5209521;28;20646;-62
2021/08/13 00:45:28;;;;;;;13.47;9.27;;;14.20;99.90;;;;;;5209672;28;20206;-62
2021/08/13 00:48:02;;;;;;;13.87;8.93;;;14.20;99.90;;;;;;5210127;28;20210;-61
2021/08/13 00:50:34;;;;;;;12.80;8.83;;;14.20;99.90;;;;;;5210865;28;20523;-60
2021/08/13 00:53:09;;;;;;;12.80;8.67;;;14.20;99.90;;;;;;5210679;28;20244;-63
2021/08/13 00:55:42;;;;;;;12.23;8.47;;;14.20;99.90;;;;;;5210390;28;20220;-61
2021/08/13 00:58:15;;;;;;;11.73;8.83;;;14.20;99.90;;;;;;5209382;28;20210;-60
2021/08/13 01:00:51;;;;;;;16.70;10.23;;;14.20;99.90;;;;;;5210520;28;20216;-65
2021/08/13 01:03:23;;;;;;;14.07;8.37;;;14.10;99.90;;;;;;5210745;28;20578;-61
2021/08/13 01:05:55;;;;;;;11.93;8.47;;;14.10;99.90;;;;;;5210698;28;20214;-60
2021/08/13 01:08:27;;;;;;;15.40;9.40;;;14.10;99.90;;;;;;5209444;28;20217;-62
2021/08/13 01:11:01;;;;;;;12.57;9.33;;;14.10;99.90;;;;;;5209607;28;20685;-64
2021/08/13 01:13:56;;;;;;;13.67;8.77;;;14.10;99.90;;;;;;5209544;28;20234;-62
2021/08/13 01:16:29;;;;;;;14.30;8.73;;;14.10;99.90;;;;;;5210069;28;20201;-61
2021/08/13 01:19:31;;;;;;;13.80;9.07;;;14.10;99.90;;;;;;5209674;28;20259;-64
2021/08/13 01:22:11;;;;;;;11.90;8.73;;;14.00;99.90;;;;;;5207623;28;20236;-63
2021/08/13 01:24:47;;;;;;;12.23;8.67;;;14.00;99.90;;;;;;5209777;28;20275;-62
2021/08/13 01:27:26;;;;;;;15.60;9.27;;;14.00;99.90;;;;;;5210230;28;20244;-64
2021/08/13 01:30:07;;;;;;;12.53;9.13;;;14.00;99.90;;;;;;5209979;28;20610;-61
2021/08/13 01:32:45;;;;;;;12.57;8.87;;;14.00;99.90;;;;;;5208860;28;20604;-61
2021/08/13 01:35:26;;;;;;;16.37;9.27;;;14.00;99.90;;;;;;5209338;28;20210;-64
2021/08/13 01:38:05;;;;;;;12.40;8.87;;;13.90;99.90;;;;;;5209559;28;20241;-62
2021/08/13 01:40:40;;;;;;;14.10;9.07;;;14.00;99.90;;;;;;5210451;28;20216;-63
2021/08/13 01:43:21;;;;;;;13.47;9.70;;;13.90;99.90;;;;;;5209481;28;20237;-62
2021/08/13 01:45:53;;;;;;;14.17;10.13;;;13.90;99.90;;;;;;5208377;28;20528;-63
2021/08/13 01:48:29;;;;;;;13.60;9.20;;;13.90;99.90;;;;;;5209132;28;20258;-62
2021/08/13 01:51:01;;;;;;;13.70;8.87;;;13.90;99.90;;;;;;5208759;28;20213;-61
2021/08/13 01:53:34;;;;;;;12.83;8.63;;;13.90;99.90;;;;;;5208858;28;20240;-61
2021/08/13 01:56:10;;;;;;;15.27;9.13;;;13.90;99.90;;;;;;5208211;28;20546;-63
2021/08/13 01:58:44;;;;;;;12.13;8.43;;;13.80;99.90;;;;;;5208539;28;20571;-62
2021/08/13 02:01:19;;;;;;;14.23;8.93;;;13.80;99.90;;;;;;5208988;28;20206;-63
2021/08/13 02:03:51;;;;;;;12.53;9.23;;;13.80;99.90;;;;;;5208611;28;20241;-62
2021/08/13 02:06:28;;;;;;;12.80;8.30;;;13.80;99.90;;;;;;5208614;28;20300;-63
2021/08/13 02:09:02;;;;;;;13.03;9.00;;;13.80;99.90;;;;;;5208517;28;20230;-58
2021/08/13 02:11:34;;;;;;;13.30;9.03;;;13.70;99.90;;;;;;5208554;28;20210;-60
2021/08/13 02:14:07;;;;;;;13.53;8.70;;;13.80;99.90;;;;;;5207911;28;20666;-60
2021/08/13 02:16:41;;;;;;;12.90;8.73;;;13.80;99.90;;;;;;5208324;28;20217;-59
2021/08/13 02:19:22;;;;;;;11.57;7.90;;;13.70;99.90;;;;;;5208173;28;20217;-59
2021/08/13 02:21:54;;;;;;;13.17;7.90;;;13.70;99.90;;;;;;5209107;28;20186;-59
2021/08/13 02:24:29;;;;;;;12.27;8.20;;;13.70;99.90;;;;;;5207662;28;20230;-61
2021/08/13 02:27:01;;;;;;;11.10;8.60;;;13.70;99.90;;;;;;5208841;28;20652;-61
2021/08/13 02:29:35;;;;;;;11.63;7.83;;;13.70;99.90;;;;;;5191388;28;20542;-61
2021/08/13 02:32:08;;;;;;;12.30;7.60;;;13.70;99.90;;;;;;5208428;28;20209;-61
2021/08/13 02:34:40;;;;;;;11.73;8.37;;;13.60;99.90;;;;;;5208420;28;20272;-62
2021/08/13 02:37:25;;;;;;;14.37;8.30;;;13.60;99.90;;;;;;5208186;28;20205;-62
2021/08/13 02:40:04;;;;;;;12.30;8.13;;;13.60;99.90;;;;;;5208447;28;20206;-63
2021/08/13 02:42:44;;;;;;;16.93;7.87;;;13.60;99.90;;;;;;5207707;28;20221;-60
2021/08/13 02:45:22;;;;;;;11.63;8.57;;;13.60;99.90;;;;;;5208163;28;20214;-62
2021/08/13 02:47:59;;;;;;;10.67;7.93;;;13.50;99.90;;;;;;5208567;28;20493;-61
2021/08/13 02:50:39;;;;;;;14.40;8.70;;;13.60;99.90;;;;;;5208139;28;20214;-61
2021/08/13 02:53:17;;;;;;;12.97;8.73;;;13.50;99.90;;;;;;5208471;28;20194;-61
2021/08/13 02:55:58;;;;;;;11.57;8.43;;;13.60;99.90;;;;;;5208214;28;20205;-60
2021/08/13 02:58:38;;;;;;;12.83;9.17;;;13.60;99.90;;;;;;5207201;28;20324;-60
2021/08/13 03:01:18;;;;;;;16.33;9.13;;;13.50;99.90;;;;;;5208397;28;20201;-61
2021/08/13 03:03:52;;;;;;;12.23;8.33;;;13.50;99.90;;;;;;5207257;28;20229;-61
2021/08/13 03:06:31;;;;;;;11.80;8.40;;;13.50;99.90;;;;;;5208178;28;20205;-62
2021/08/13 03:09:04;;;;;;;10.50;8.20;;;13.50;99.90;;;;;;5207906;28;20226;-60
2021/08/13 03:11:39;;;;;;;11.67;8.47;;;13.50;99.90;;;;;;5208064;28;20206;-61
2021/08/13 03:14:12;;;;;;;14.80;8.63;;;13.50;99.90;;;;;;5207302;28;20244;-62
2021/08/13 03:16:46;;;;;;;14.93;8.60;;;13.40;99.90;;;;;;5207715;28;20293;-62
2021/08/13 03:19:20;;;;;;;13.93;8.87;;;13.40;99.90;;;;;;5208044;28;20545;-61
2021/08/13 03:21:52;;;;;;;11.67;8.33;;;13.50;99.90;;;;;;5210733;28;20285;-61
2021/08/13 03:24:25;;;;;;;11.97;9.03;;;13.50;99.90;;;;;;5212096;28;20653;-62
2021/08/13 03:26:57;;;;;;;16.07;10.20;;;13.50;99.90;;;;;;5210820;28;20225;-62
2021/08/13 03:29:32;;;;;;;14.27;10.40;;;13.60;99.90;;;;;;5211839;28;20234;-65
2021/08/13 03:32:04;;;;;;;12.90;9.10;;;13.60;99.90;;;;;;5211962;28;20217;-63
2021/08/13 03:34:37;;;;;;;14.77;9.43;;;13.60;99.90;;;;;;5211690;28;20597;-60
2021/08/13 03:37:09;;;;;;;13.63;9.60;;;13.70;99.90;;;;;;5210636;28;20198;-61
2021/08/13 03:39:41;;;;;;;13.77;9.90;;;13.70;99.90;;;;;;5211532;28;20328;-64
2021/08/13 03:42:15;;;;;;;14.13;10.57;;;13.80;99.90;;;;;;5211038;28;20194;-61
2021/08/13 03:44:50;;;;;;;13.17;9.23;;;13.80;99.90;;;;;;5211944;28;20664;-61
2021/08/13 03:47:22;;;;;;;13.37;9.43;;;13.90;99.90;;;;;;5210761;28;20209;-61
2021/08/13 03:49:54;;;;;;;11.40;8.97;;;13.90;99.90;;;;;;5212177;28;20559;-62
2021/08/13 03:52:26;;;;;;;10.93;8.33;;;14.00;99.90;;;;;;5211024;28;20221;-62
2021/08/13 03:55:00;;;;;;;12.50;8.20;;;14.00;99.90;;;;;;5211903;28;20661;-61
2021/08/13 03:57:32;;;;;;;11.67;9.03;;;14.10;99.90;;;;;;5210631;28;20218;-60
2021/08/13 04:00:05;;;;;;;13.97;9.50;;;14.10;99.90;;;;;;5211002;28;20689;-62
2021/08/13 04:02:37;;;;;;;11.10;8.83;;;14.10;99.90;;;;;;5211315;28;20206;-61
2021/08/13 04:05:10;;;;;;;12.73;8.40;;;14.20;99.90;;;;;;5211382;28;20241;-61
2021/08/13 04:07:43;;;;;;;13.13;8.40;;;14.20;99.90;;;;;;5209887;28;20296;-60
2021/08/13 04:10:14;;;;;;;12.60;7.70;;;14.20;99.90;;;;;;5193612;28;20275;-63
2021/08/13 04:12:46;;;;;;;11.90;7.77;;;14.30;99.90;;;;;;5209919;28;20264;-65
2021/08/13 04:15:19;;;;;;;10.07;7.00;;;14.30;99.90;;;;;;5211269;28;20516;-62
2021/08/13 04:17:51;;;;;;;11.40;7.40;;;14.40;99.90;;;;;;5210730;28;20211;-63
2021/08/13 04:20:25;;;;;;;10.17;7.40;;;14.40;99.90;;;;;;5210913;28;20226;-63
2021/08/13 04:22:58;;;;;;;10.93;7.77;;;14.50;99.90;;;;;;5210519;28;20201;-60
2021/08/13 04:25:30;;;;;;;9.90;7.37;;;14.50;99.90;;;;;;5193348;28;20713;-64
2021/08/13 04:28:05;;;;;;;10.97;6.37;;;14.50;99.90;;;;;;5210886;28;20617;-62
2021/08/13 04:30:36;;;;;;;11.67;7.10;;;14.60;99.90;;;;;;5210657;28;20248;-61
2021/08/13 04:33:10;;;;;;;11.43;6.60;;;14.60;99.90;;;;;;5193705;28;20603;-62
2021/08/13 04:35:44;;;;;;;13.83;7.07;;;14.70;99.90;;;;;;5210341;28;20242;-59
2021/08/13 04:38:17;;;;;;;9.67;6.70;;;14.70;99.90;;;;;;5193442;28;20197;-61
2021/08/13 04:40:48;;;;;;;15.17;6.90;;;14.80;99.90;;;;;;5209668;28;20348;-63
2021/08/13 04:43:20;;;;;;;11.93;6.93;;;14.90;99.90;;;;;;5210636;28;20202;-62
2021/08/13 04:45:54;;;;;;;10.23;6.53;;;15.00;99.90;;;;;;5209410;28;20234;-61
2021/08/13 04:48:29;;;;;;;10.70;6.40;;;15.10;99.90;;;;;;5209813;28;20563;-64
2021/08/13 04:51:01;;;;;;;10.67;6.27;;;15.30;99.90;;;;;;5210314;28;20234;-63
2021/08/13 04:53:33;;;;;;;9.77;6.20;;;15.40;99.90;;;;;;5209920;28;20272;-61
2021/08/13 04:56:05;;;;;;;10.40;6.13;;;15.50;99.90;;;;;;5210542;28;20248;-61
2021/08/13 04:58:39;;;;;;;8.53;5.50;;;15.60;99.90;;;;;;5193280;28;20577;-61
2021/08/13 05:01:11;;;;;;;8.20;5.77;;;15.70;99.90;;;;;;5209427;28;20255;-61
2021/08/13 05:03:46;;;;;;;12.07;5.90;;;15.70;99.90;;;;;;5208953;28;20217;-61
2021/08/13 05:06:18;;;;;;;11.83;6.40;;;15.90;99.90;;;;;;5210171;28;20225;-62
2021/08/13 05:08:55;;;;;;;13.47;5.83;;;15.90;99.90;;;;;;5209125;28;20202;-62
2021/08/13 05:11:27;;;;;;;7.37;4.83;;;16.00;99.90;;;;;;5192813;28;20313;-62
2021/08/13 05:13:59;;;;;;;10.57;4.67;;;16.10;99.90;;;;;;5209129;28;20202;-61
2021/08/13 05:16:33;;;;;;;9.03;4.80;;;16.20;99.90;;;;;;5210226;28;20620;-61
2021/08/13 05:19:05;;;;;;;8.67;4.73;;;16.30;99.90;;;;;;5209735;28;20290;-60
2021/08/13 05:21:38;;;;;;;7.40;4.60;;;16.30;99.90;;;;;;5208737;28;20230;-65
2021/08/13 05:24:10;;;;;;;5.63;4.33;;;16.40;99.90;;;;;;5209627;28;20218;-64
2021/08/13 05:26:42;;;;;;;6.53;4.70;;;16.50;99.90;;;;;;5208721;28;20250;-61
2021/08/13 05:29:14;;;;;;;5.03;3.57;;;16.60;99.90;;;;;;5208627;28;20214;-61
2021/08/13 05:31:46;;;;;;;6.07;3.80;;;16.70;99.90;;;;;;5209582;28;20321;-62
2021/08/13 05:34:18;;;;;;;7.37;4.57;;;16.90;99.90;;;;;;5208256;28;20233;-62
2021/08/13 05:36:50;;;;;;;9.27;5.23;;;17.00;99.90;;;;;;5208397;28;20226;-61
2021/08/13 05:39:22;;;;;;;8.53;4.90;;;17.10;99.90;;;;;;5208291;28;20198;-66
2021/08/13 05:41:54;;;;;;;5.27;4.20;;;17.20;99.90;;;;;;5208453;28;20229;-60
2021/08/13 05:44:26;;;;;;;4.93;3.47;;;17.30;99.90;;;;;;5207595;28;20244;-62
2021/08/13 05:46:58;;;;;;;5.60;3.73;;;17.40;99.90;;;;;;5208052;28;20237;-61
2021/08/13 05:49:30;;;;;;;4.72;3.58;;;17.50;99.90;;;;;;5191719;28;20509;-62
2021/08/13 05:52:02;;;;;;;3.87;3.20;;;17.60;99.90;;;;;;5207732;28;20619;-63
2021/08/13 05:54:34;;;;;;;5.73;3.87;;;17.80;99.90;;;;;;5191677;28;20221;-63
2021/08/13 05:57:06;;;;;;;6.13;3.42;;;17.90;99.90;;;;;;5207882;28;20230;-61
2021/08/13 05:59:41;;;;;;;5.45;3.13;;;18.00;99.90;;;;;;5191535;28;20319;-63
2021/08/13 06:02:18;;;;;;;4.97;3.28;;;18.20;99.90;;;;;;5207724;28;20229;-61
2021/08/13 06:04:55;;;;;;;5.28;3.10;;;18.30;99.90;;;;;;5209348;28;20538;-62
2021/08/13 06:07:27;;;;;;;4.10;3.30;;;18.50;99.90;;;;;;5207917;28;20307;-61
2021/08/13 06:09:59;;;;;;;5.90;3.47;;;18.70;99.90;;;;;;5207839;28;20216;-62
2021/08/13 06:12:31;;;;;;;5.10;3.15;;;18.80;99.90;;;;;;5207467;28;20309;-59
2021/08/13 06:15:04;;;;;;;7.90;3.47;;;19.00;99.90;;;;;;5207789;28;20232;-64
2021/08/13 06:17:36;;;;;;;5.90;3.47;;;19.10;99.90;;;;;;5207379;28;20248;-58
2021/08/13 06:20:10;;;;;;;6.57;3.67;;;19.30;99.90;;;;;;5207833;28;20205;-60
2021/08/13 06:22:44;;;;;;;7.03;3.78;;;20.20;99.90;;;;;;5208727;28;20216;-61
2021/08/13 06:25:16;;;;;;;6.18;3.17;;;22.00;99.90;;;;;;5207410;28;20212;-55
2021/08/13 06:27:48;;;;;;;6.00;3.13;;;24.40;99.90;;;;;;5208833;28;20696;-59
2021/08/13 06:30:22;;;;;;;5.20;3.00;;;26.70;99.90;;;;;;5207371;28;20224;-64
2021/08/13 06:32:55;;;;;;;6.30;2.53;;;28.50;99.90;;;;;;5207214;28;20209;-59
2021/08/13 06:35:27;;;;;;;5.45;2.50;;;30.50;99.90;;;;;;5208982;28;20222;-58
2021/08/13 06:37:59;;;;;;;3.10;2.03;;;31.80;97.00;;;;;;5207374;28;20236;-59
2021/08/13 06:40:34;;;;;;;2.92;2.10;;;33.00;93.20;;;;;;5191295;28;20197;-54
2021/08/13 06:43:06;;;;;;;3.67;1.85;;;34.00;90.40;;;;;;5208505;28;20234;-59
2021/08/13 06:45:38;;;;;;;4.25;2.05;;;35.00;86.40;;;;;;5208173;28;20629;-58
2021/08/13 06:48:10;;;;;;;2.63;1.90;;;35.70;82.80;;;;;;5208559;28;20230;-63
2021/08/13 06:50:42;;;;;;;3.75;1.65;;;36.60;77.80;;;;;;5208306;28;20206;-58
2021/08/13 06:53:14;;;;;;;4.15;1.80;;;36.80;75.00;;;;;;5191118;28;20555;-54
2021/08/13 06:55:49;;;;;;;3.20;1.80;;;37.30;72.10;;;;;;5209325;28;20664;-57
2021/08/13 06:58:23;;;;;;;2.67;1.63;;;37.60;69.40;;;;;;5211833;28;20794;-56
2021/08/13 07:00:55;;;;;;;3.63;1.83;;;37.70;67.20;;;;;;5211630;28;20236;-58
2021/08/13 07:03:27;;;;;;;2.95;2.28;;;37.80;66.40;;;;;;5211275;28;20240;-64
2021/08/13 07:06:02;;;;;;;8.55;2.22;;;38.00;66.30;;;;;;5212172;28;20262;-60
2021/08/13 07:08:34;;;;;;;6.35;2.88;;;38.20;66.90;;;;;;5211109;28;20255;-60
2021/08/13 07:11:06;;;;;;;3.50;1.98;;;38.00;65.70;;;;;;5212497;28;20201;-63
2021/08/13 07:13:39;;;;;;;6.05;2.40;;;37.70;66.20;;;;;;5222931;28;20216;-60
2021/08/13 07:16:10;;;;;;;5.43;2.53;;;37.60;66.40;;;;;;5232839;28;20233;-60
2021/08/13 07:18:45;;;;;;;6.78;2.92;;;37.70;65.20;;;;;;5232561;28;20224;-58
2021/08/13 07:21:19;;;;;;;5.15;2.08;;;37.70;64.60;;;;;;5232595;28;20208;-60
2021/08/13 07:23:51;;;;;;;6.65;2.17;;;37.50;63.40;;;;;;5232935;28;20225;-59
2021/08/13 07:26:24;;;;;;;7.28;2.50;;;37.60;64.10;;;;;;5231262;28;20208;-61
2021/08/13 07:29:00;;;;;;;6.95;2.47;;;37.50;63.60;;;;;;5231838;28;20247;-59
2021/08/13 07:31:32;;;;;;;11.82;2.42;;;37.30;64.30;;;;;;5232760;28;20209;-60
2021/08/13 07:34:04;;;;;;;8.13;2.25;;;37.30;64.00;;;;;;5232274;28;20724;-56
2021/08/13 07:36:36;;;;;;;8.63;2.63;;;37.20;63.80;;;;;;5232484;28;20236;-57
2021/08/13 07:39:13;;;;;;;7.55;2.30;;;36.80;63.50;;;;;;5231117;28;20221;-57
2021/08/13 07:41:45;;;;;;;5.85;2.60;;;36.30;63.60;;;;;;5232567;28;20180;-57
2021/08/13 07:44:20;;;;;;;6.53;2.50;;;35.50;64.60;;;;;;5231174;28;20221;-58
2021/08/13 07:47:13;;;;;;;8.13;2.72;;;34.90;67.80;;;;;;5232427;28;20206;-56
2021/08/13 07:49:45;;;;;;;5.13;2.28;;;33.70;68.50;;;;;;5231992;28;20237;-60
2021/08/13 07:52:17;;;;;;;2.60;2.00;;;33.10;71.20;;;;;;5231770;28;20319;-62
2021/08/13 07:54:49;;;;;;;3.22;2.28;;;32.60;71.30;;;;;;5230972;28;20655;-59
2021/08/13 07:57:25;;;;;;;7.43;2.20;;;32.00;72.40;;;;;;5232080;28;20212;-59
2021/08/13 07:59:57;;;;;;;5.88;1.80;;;31.60;73.00;;;;;;5230912;28;20240;-62
2021/08/13 08:02:31;;;;;;;3.20;2.08;;;31.20;73.60;;;;;;5231807;28;20212;-59
2021/08/13 08:05:03;;;;;;;2.90;2.17;;;30.90;74.80;;;;;;5232407;28;20232;-59
2021/08/13 08:07:36;;;;;;;6.85;2.20;;;30.40;73.60;;;;;;5210392;28;20213;-60
2021/08/13 08:10:08;;;;;;;4.03;2.20;;;30.10;75.20;;;;;;5211336;28;20230;-57
2021/08/13 08:12:40;;;;;;;4.60;2.30;;;29.90;76.10;;;;;;5210385;28;20216;-60
2021/08/13 08:15:12;;;;;;;3.78;2.38;;;29.70;78.20;;;;;;5209520;28;20226;-57
2021/08/13 08:17:45;;;;;;;3.25;2.08;;;29.60;77.50;;;;;;5211026;28;20198;-58
2021/08/13 08:20:17;;;;;;;4.68;2.30;;;29.50;78.10;;;;;;5211141;28;20226;-57
2021/08/13 08:22:49;;;;;;;2.83;2.10;;;29.40;78.70;;;;;;5210953;28;20225;-57
2021/08/13 08:25:21;;;;;;;2.90;1.90;;;29.10;77.50;;;;;;5211007;28;20555;-62
2021/08/13 08:27:53;;;;;;;4.80;2.28;;;28.70;79.60;;;;;;5211226;28;20540;-62
2021/08/13 08:30:26;;;;;;;3.30;2.00;;;28.70;78.90;;;;;;5210611;28;20245;-65
2021/08/13 08:32:59;;;;;;;3.60;2.15;;;28.70;77.40;;;;;;5210217;28;20516;-65
2021/08/13 08:35:31;;;;;;;2.28;1.95;;;28.80;77.80;;;;;;5210952;28;20612;-62
2021/08/13 08:38:03;;;;;;;3.65;2.47;;;28.70;78.30;;;;;;5210709;28;20212;-63
2021/08/13 08:40:38;;;;;;;3.10;1.73;;;28.70;79.60;;;;;;5210781;28;20234;-64
2021/08/13 08:43:10;;;;;;;3.30;2.00;;;28.80;79.70;;;;;;5210840;28;20206;-62
2021/08/13 08:45:42;;;;;;;4.57;2.60;;;28.80;79.30;;;;;;5209339;28;20245;-66
2021/08/13 08:48:15;;;;;;;2.70;2.08;;;28.90;79.80;;;;;;5209522;28;20248;-63
2021/08/13 08:50:49;;;;;;;2.42;2.22;;;28.80;76.90;;;;;;5210571;28;20253;-62
2021/08/13 08:53:26;;;;;;;3.30;2.22;;;28.70;77.80;;;;;;5210555;28;20201;-64
2021/08/13 08:56:00;;;;;;;5.40;2.20;;;28.70;82.00;;;;;;5210361;28;20230;-65
2021/08/13 08:58:33;;;;;;;4.53;2.50;;;28.80;81.60;;;;;;5209382;28;20665;-62
2021/08/13 09:01:08;;;;;;;6.07;2.50;;;28.60;80.40;;;;;;5210687;28;20230;-62
2021/08/13 09:03:44;;;;;;;3.50;2.38;;;28.30;80.50;;;;;;5210413;28;20188;-62
2021/08/13 09:06:18;;;;;;;6.95;2.35;;;28.20;83.10;;;;;;5209181;28;20242;-63
2021/08/13 09:08:51;;;;;;;5.72;2.58;;;28.30;84.00;;;;;;5210342;28;20216;-67
2021/08/13 09:11:25;;;;;;;4.97;2.38;;;28.50;83.90;;;;;;5209758;28;20233;-63
2021/08/13 09:14:03;;;;;;;3.10;2.10;;;28.60;81.40;;;;;;5209268;28;20205;-62
2021/08/13 09:16:35;;;;;;;2.88;2.15;;;28.60;78.20;;;;;;5209072;28;20244;-62
2021/08/13 09:19:09;;;;;;;7.22;2.33;;;28.40;79.20;;;;;;5208211;28;20602;-63
2021/08/13 09:21:41;;;;;;;3.08;2.50;;;28.30;80.90;;;;;;5210347;28;20655;-62
2021/08/13 09:24:13;;;;;;;4.00;2.05;;;28.30;81.70;;;;;;5209072;28;20213;-66
2021/08/13 09:26:47;;;;;;;4.70;1.90;;;28.40;79.80;;;;;;5209809;28;20238;-65
2021/08/13 09:29:20;;;;;;;4.68;2.30;;;28.60;79.00;;;;;;5209142;28;20201;-62
2021/08/13 09:31:52;;;;;;;5.15;2.00;;;28.50;76.30;;;;;;5208760;28;20340;-63
2021/08/13 09:34:32;;;;;;;3.65;2.08;;;28.40;78.00;;;;;;5209516;28;20232;-63
2021/08/13 09:37:14;;;;;;;3.38;2.10;;;28.20;77.40;;;;;;5209588;28;20328;-63
2021/08/13 09:39:53;;;;;;;9.23;2.20;;;28.10;78.80;;;;;;5208802;28;20280;-62
2021/08/13 09:42:39;;;;;;;4.97;2.22;;;28.10;76.90;;;;;;5209294;28;20229;-62
2021/08/13 09:45:13;;;;;;;3.35;1.80;;;27.90;73.00;;;;;;5209334;28;20613;-61
2021/08/13 09:47:47;;;;;;;3.67;1.92;;;27.80;73.30;;;;;;5209628;28;20844;-63
2021/08/13 09:50:37;;;;;;;3.45;2.40;;;27.80;76.20;;;;;;5209228;28;20201;-62
2021/08/13 09:53:13;;;;;;;2.95;1.90;;;27.70;78.80;;;;;;5209415;28;20215;-62
2021/08/13 09:55:45;;;;;;;4.38;2.30;;;27.80;77.80;;;;;;5209399;28;20217;-62
2021/08/13 09:58:29;;;;;;;3.80;1.67;;;27.80;75.20;;;;;;5208130;28;20210;-63
2021/08/13 10:01:01;;;;;;;5.00;2.17;;;27.80;75.60;;;;;;5209000;28;20194;-61
2021/08/13 10:03:51;;;;;;;3.72;2.10;;;27.90;76.10;;;;;;5208004;28;20281;-62
2021/08/13 10:06:29;;;;;;;2.42;2.00;;;27.90;75.30;;;;;;5209366;28;20234;-62
2021/08/13 10:09:02;;;;;;;2.17;1.73;;;27.90;74.60;;;;;;5209088;28;20244;-62
2021/08/13 10:11:35;;;;;;;5.28;1.98;;;28.00;75.00;;;;;;5208243;28;20265;-63
2021/08/13 10:14:07;;;;;;;3.78;1.80;;;28.00;73.80;;;;;;5208838;28;20194;-62
2021/08/13 10:16:39;;;;;;;2.45;1.83;;;28.10;73.50;;;;;;5209040;28;20637;-62
2021/08/13 10:19:11;;;;;;;4.13;2.03;;;28.00;70.60;;;;;;5209230;28;20528;-62
2021/08/13 10:21:46;;;;;;;2.33;1.80;;;27.80;70.90;;;;;;5207572;28;20222;-62
2021/08/13 10:24:21;;;;;;;5.28;2.15;;;27.70;70.90;;;;;;5207584;28;20590;-62
2021/08/13 10:26:54;;;;;;;3.10;2.00;;;27.70;71.70;;;;;;5208862;28;20240;-62
2021/08/13 10:29:29;;;;;;;2.35;1.90;;;27.50;71.40;;;;;;5208834;28;20210;-63
2021/08/13 10:32:02;;;;;;;2.47;1.70;;;27.50;71.00;;;;;;5208450;28;20242;-63
2021/08/13 10:34:34;;;;;;;3.17;1.80;;;27.70;72.40;;;;;;5207542;28;20206;-66
2021/08/13 10:37:12;;;;;;;4.80;1.90;;;27.70;70.90;;;;;;5208013;28;20295;-62
2021/08/13 10:39:45;;;;;;;2.55;1.65;;;27.70;69.80;;;;;;5208848;28;20194;-63
2021/08/13 10:42:22;;;;;;;2.33;1.92;;;27.70;69.80;;;;;;5208419;28;20230;-64
2021/08/13 10:45:00;;;;;;;4.00;2.25;;;27.70;70.10;;;;;;5208305;28;20208;-62
2021/08/13 10:47:44;;;;;;;4.80;1.92;;;27.70;71.20;;;;;;5208331;28;20238;-63
2021/08/13 10:50:18;;;;;;;3.10;2.05;;;27.80;70.90;;;;;;5207491;28;20197;-63
2021/08/13 10:52:51;;;;;;;2.22;1.90;;;27.80;71.10;;;;;;5208206;28;20226;-64
2021/08/13 10:56:02;;;;;;;2.60;2.33;;;27.80;71.50;;;;;;5208269;28;20222;-62
2021/08/13 10:58:40;;;;;;;3.22;2.72;;;27.90;71.60;;;;;;5169426;28;20338;-61
2021/08/13 11:01:13;;;;;;;2.42;2.10;;;27.80;71.00;;;;;;5206668;28;20202;-63
2021/08/13 11:03:55;;;;;;;3.17;2.22;;;27.80;71.40;;;;;;5207103;28;20642;-64
2021/08/13 11:06:39;;;;;;;3.55;2.47;;;28.00;72.10;;;;;;5208350;28;20199;-62
2021/08/13 11:09:34;;;;;;;3.65;2.47;;;28.10;71.00;;;;;;5208313;28;20228;-63
2021/08/13 11:12:11;;;;;;;4.95;2.55;;;28.10;72.30;;;;;;5207372;28;20623;-64
2021/08/13 11:14:48;;;;;;;2.95;2.50;;;28.00;71.60;;;;;;5208744;28;20186;-63
2021/08/13 11:17:42;;;;;;;4.35;2.47;;;27.90;71.50;;;;;;5208474;28;20264;-62
2021/08/13 11:20:15;;;;;;;4.93;2.30;;;27.90;71.60;;;;;;5208233;28;20241;-63
2021/08/13 11:23:02;;;;;;;3.65;2.15;;;28.00;71.10;;;;;;5207885;28;20245;-63
2021/08/13 11:25:55;;;;;;;5.60;3.00;;;27.90;71.50;;;;;;5208195;28;20191;-64
2021/08/13 11:28:31;;;;;;;4.82;3.08;;;28.00;71.80;;;;;;5207916;28;20234;-63
2021/08/13 11:31:03;;;;;;;3.15;2.30;;;28.00;70.80;;;;;;5208275;28;20658;-61
2021/08/13 11:33:39;;;;;;;3.08;2.53;;;27.90;70.40;;;;;;5207950;28;20226;-62
2021/08/13 11:36:53;;;;;;;3.25;2.50;;;27.90;71.20;;;;;;5207834;28;20222;-64
2021/08/13 11:39:37;;;;;;;7.40;2.97;;;27.80;70.10;;;;;;5206949;28;20202;-63
2021/08/13 11:42:10;;;;;;;3.38;2.70;;;27.70;71.10;;;;;;5210215;28;20309;-63
2021/08/13 11:44:47;;;;;;;4.88;2.97;;;27.70;71.60;;;;;;5210806;28;20206;-60
2021/08/13 11:47:19;;;;;;;3.20;2.60;;;27.70;71.10;;;;;;5211692;28;20217;-69
2021/08/13 11:49:51;;;;;;;7.18;2.72;;;27.80;71.50;;;;;;5194563;28;20217;-64
2021/08/13 11:52:27;;;;;;;3.67;2.63;;;27.90;71.20;;;;;;5210827;28;20218;-62
2021/08/13 11:55:33;;;;;;;4.63;2.25;;;27.80;71.90;;;;;;5211463;28;20645;-62
2021/08/13 11:58:07;;;;;;;7.07;2.60;;;27.70;71.30;;;;;;5200175;28;20254;-63
2021/08/13 12:00:39;;;;;;;4.65;2.65;;;27.60;72.20;;;;;;5211663;28;20236;-64
2021/08/13 12:03:13;;;;;;;6.70;2.83;;;27.40;73.40;;;;;;5210527;28;20240;-63
2021/08/13 12:05:46;;;;;;;2.75;2.30;;;27.30;72.60;;;;;;5194065;28;20202;-63
2021/08/13 12:08:20;;;;;;;3.55;2.85;;;27.40;72.70;;;;;;5210243;28;20226;-63
2021/08/13 12:10:52;;;;;;;4.55;2.90;;;27.70;72.80;;;;;;5211556;28;20206;-64
2021/08/13 12:13:34;;;;;;;4.53;2.80;;;27.90;72.20;;;;;;5211373;28;20535;-63
2021/08/13 12:16:09;;;;;;;3.88;2.88;;;27.90;71.00;;;;;;5211194;28;20670;-64
2021/08/13 12:18:41;;;;;;;3.85;3.00;;;28.10;71.80;;;;;;5211515;28;20225;-65
2021/08/13 12:21:15;;;;;;;4.90;2.83;;;28.20;70.50;;;;;;5211636;28;20202;-67
2021/08/13 12:23:56;;;;;;;4.72;2.75;;;28.20;70.30;;;;;;5211056;28;20230;-64
2021/08/13 12:26:28;;;;;;;3.17;2.88;;;28.30;70.40;;;;;;5210073;28;20205;-64
2021/08/13 12:29:23;;;;;;;4.97;2.92;;;28.40;70.50;;;;;;5210198;28;20261;-62
2021/08/13 12:31:57;;;;;;;4.13;3.10;;;28.50;70.90;;;;;;5211312;28;20595;-63
2021/08/13 12:34:30;;;;;;;5.47;3.15;;;28.60;71.20;;;;;;5211223;28;20288;-64
2021/08/13 12:37:13;;;;;;;4.95;3.10;;;28.70;71.30;;;;;;5210526;28;20569;-63
2021/08/13 12:39:49;;;;;;;3.63;3.33;;;28.70;69.50;;;;;;5210601;28;20232;-65
2021/08/13 12:42:21;;;;;;;3.80;3.10;;;28.60;69.90;;;;;;5210562;28;20206;-63
2021/08/13 12:44:58;;;;;;;5.25;2.90;;;28.40;70.40;;;;;;5210405;28;20230;-64
2021/08/13 12:47:30;;;;;;;3.92;2.78;;;28.30;70.30;;;;;;5210667;28;20213;-62
2021/08/13 12:50:02;;;;;;;3.65;2.88;;;28.20;71.20;;;;;;5209809;28;20237;-63
2021/08/13 12:52:35;;;;;;;4.10;2.97;;;28.30;71.30;;;;;;5210611;28;20214;-63
2021/08/13 12:55:14;;;;;;;5.00;3.55;;;28.40;70.50;;;;;;5209355;28;20234;-62
2021/08/13 12:57:46;;;;;;;4.90;3.60;;;28.50;70.60;;;;;;5193062;28;20229;-64
2021/08/13 13:00:30;;;;;;;7.38;3.45;;;28.50;69.30;;;;;;5209175;28;20300;-62
2021/08/13 13:03:13;;;;;;;4.20;3.10;;;28.40;68.50;;;;;;5210543;28;20235;-63
2021/08/13 13:06:09;;;;;;;4.13;3.08;;;28.30;69.10;;;;;;5210054;28;20267;-63
2021/08/13 13:08:48;;;;;;;4.65;3.13;;;28.40;69.10;;;;;;5210325;28;20187;-62
2021/08/13 13:11:24;;;;;;;4.60;2.88;;;28.40;69.10;;;;;;5210163;28;20241;-62
2021/08/13 13:14:16;;;;;;;4.28;3.00;;;28.50;69.20;;;;;;5209483;28;20230;-63
2021/08/13 13:17:18;;;;;;;3.65;3.10;;;28.70;69.60;;;;;;5209992;28;20316;-64
2021/08/13 13:20:11;;;;;;;4.72;3.78;;;28.70;68.90;;;;;;5207721;28;20239;-64
2021/08/13 13:23:06;;;;;;;4.18;3.22;;;28.60;68.70;;;;;;5210132;28;20575;-64
2021/08/13 13:25:43;;;;;;;3.75;3.33;;;28.50;69.80;;;;;;5209193;28;20240;-62